Edgewater, Maryland
Current Conditions -  °F | °C
As of 4:54 PM on Monday 26 Jan 2015 (Local Time) from KNAK Reporting Station
Overcast Overcast  
Wind Chill: 25°   Ceiling: 1700
Heat Index: 33°   Visibility: 10mi
Dew Point: 27°   Wind: 10mph
Humidity: 78%   Direction: 30°NNE
Pressure: 29.71"   Gusts: NA
Location:  38.96°N, 76.55°W
Report Text: KNAK 262154Z AUTO 03009KT 10SM OVC017 01/M03 A2971 RMK AO2 SLP063 T00061028
Loading
Personal Weather Stations






























Interactive Weather Map New forecast layout! Learn more

10-Day Weather Forecast

Advertisements
Track Severe Weather on mobile